Flight Track Log - Related Links

Times and Time Zones

All times are in EDT time to prevent confusion due to time zone crossing. See the UPS2134 flight status page for this flight to view local times or setup timezone preferences in your user account.

Time Position Orientation Groundspeed Altitude Reporting Facility
EDT Latitude Longitude Course Direction KTS MPH feet Rate Location/Type
Thu 05:21:38 PM 38.1670 -85.7400 165° South 16 18  Level FlightAware ADS-B
Thu 05:24:20 PM 38.1810 -85.7470 339° North 161 185 900 619 Climbing FlightAware ADS-B
Thu 05:24:52 PM 38.2050 -85.7560 344° North 186 214 2,000 1,862 Climbing FlightAware ADS-B
Thu 05:25:18 PM 38.2270 -85.7690 335° Northwest 216 249 2,700 2,222 Climbing FlightAware ADS-B
Thu 05:25:46 PM 38.2510 -85.7890 327° Northwest 226 260 4,000 2,111 Climbing FlightAware ADS-B
Thu 05:26:12 PM 38.2760 -85.8070 331° Northwest 260 299 4,600 2,143 Climbing FlightAware ADS-B
Thu 05:26:42 PM 38.3120 -85.8220 342° North 267 307 6,000 2,586 Climbing FlightAware ADS-B
Thu 05:27:10 PM 38.3460 -85.8350 343° North 280 322 7,100 2,625 Climbing FlightAware ADS-B
Thu 05:27:30 PM 38.3710 -85.8450 343° North 280 322 8,100 2,667 Climbing FlightAware ADS-B
Thu 05:27:55 PM 38.3950 -85.8420 North 279 321 9,100 1,448 Climbing FlightAware ADS-B
Thu 05:28:28 PM 38.4340 -85.8190 25° Northeast 281 323 9,500 1,658 Climbing FlightAware ADS-B
Thu 05:29:11 PM 38.4920 -85.7580 39° Northeast 342 394 11,200 2,386 Climbing FlightAware ADS-B
Thu 05:29:51 PM 38.5440 -85.7100 36° Northeast 347 399 12,800 2,169 Climbing FlightAware ADS-B
Thu 05:30:34 PM 38.6000 -85.6590 35° Northeast 359 413 14,200 1,976 Climbing FlightAware ADS-B
Thu 05:31:13 PM 38.6540 -85.6080 36° Northeast 367 422 15,500 1,906 Climbing FlightAware ADS-B
Thu 05:31:59 PM 38.7170 -85.5490 36° Northeast 375 432 16,900 1,884 Climbing FlightAware ADS-B
Thu 05:32:39 PM 38.7740 -85.4960 36° Northeast 380 437 18,200 1,857 Climbing FlightAware ADS-B
Thu 05:33:23 PM 38.8370 -85.4370 36° Northeast 385 443 19,500 1,725 Climbing FlightAware ADS-B
Thu 05:33:59 PM 38.8860 -85.3900 37° Northeast 391 450 20,500 706 Climbing FlightAware ADS-B
Thu 05:34:48 PM 38.9470 -85.3340 36° Northeast 391 450 20,500 1,636 Level FlightAware ADS-B
Thu 05:35:27 PM 39.0200 -85.2650 36° Northeast 401 461 22,900 1,902 Climbing FlightAware ADS-B
Thu 05:36:10 PM 39.0750 -85.2140 36° Northeast 401 461 23,100 156 Climbing FlightAware ADS-B
Thu 05:36:44 PM 39.1180 -85.1730 36° Northeast 401 461 23,100 1,500 Level FlightAware ADS-B
Thu 05:37:26 PM 39.2020 -85.0930 36° Northeast 414 476 25,000 1,341 Climbing FlightAware ADS-B
Thu 05:38:09 PM 39.2670 -85.0310 36° Northeast 412 474 25,000  Level FlightAware ADS-B
Thu 05:38:43 PM 39.3210 -84.9790 37° Northeast 414 476 25,000 667 Level FlightAware ADS-B
Thu 05:39:21 PM 39.3780 -84.9240 37° Northeast 415 478 25,800 878 Climbing FlightAware ADS-B
Thu 05:40:05 PM 39.4410 -84.8650 36° Northeast 416 479 26,200 1,556 Climbing FlightAware ADS-B
Thu 05:40:42 PM 39.5060 -84.8020 37° Northeast 413 475 27,900 1,835 Climbing FlightAware ADS-B
Thu 05:41:30 PM 39.5790 -84.7310 37° Northeast 417 480 28,800 1,340 Climbing FlightAware ADS-B
Thu 05:42:16 PM 39.6500 -84.6620 37° Northeast 411 473 30,000 1,171 Climbing FlightAware ADS-B
Thu 05:42:52 PM 39.7070 -84.6070 37° Northeast 419 482 30,400 632 Climbing FlightAware ADS-B
Thu 05:43:32 PM 39.7700 -84.5460 37° Northeast 428 493 30,800 900 Climbing FlightAware ADS-B
Thu 05:44:12 PM 39.8330 -84.4850 37° Northeast 426 490 31,600 1,244 Climbing FlightAware ADS-B
Thu 05:44:54 PM 39.8990 -84.4200 37° Northeast 421 484 32,500 977 Climbing FlightAware ADS-B
Thu 05:45:38 PM 39.9690 -84.3530 36° Northeast 418 481 33,000 375 Climbing FlightAware ADS-B
Thu 05:46:14 PM 40.0250 -84.2980 37° Northeast 415 478 33,000  Level FlightAware ADS-B
Thu 05:47:02 PM 40.0990 -84.2260 37° Northeast 420 483 33,000 333 Level FlightAware ADS-B
Thu 05:47:44 PM 40.1640 -84.1620 37° Northeast 416 479 33,500 1,071 Climbing FlightAware ADS-B
Thu 05:48:26 PM 40.2290 -84.0980 37° Northeast 409 471 34,500 1,171 Climbing FlightAware ADS-B
Thu 05:49:06 PM 40.2870 -84.0380 38° Northeast 414 476 35,100 375 Climbing FlightAware ADS-B
Thu 05:49:46 PM 40.3380 -83.9590 50° Northeast 418 481 35,000 -71 Descending FlightAware ADS-B
Thu 05:50:30 PM 40.3920 -83.8700 51° Northeast 426 490 35,000 409 Level FlightAware ADS-B
Thu 05:51:14 PM 40.4460 -83.7800 52° Northeast 426 490 35,600 907 Climbing FlightAware ADS-B
Thu 05:51:56 PM 40.4960 -83.6930 53° Northeast 422 486 36,300 951 Climbing FlightAware ADS-B
Thu 05:52:36 PM 40.5430 -83.6130 52° Northeast 420 483 36,900 525 Climbing FlightAware ADS-B
Thu 05:53:16 PM 40.5910 -83.5310 52° Northeast 418 481 37,000 70 Climbing FlightAware ADS-B
Thu 05:54:02 PM 40.6450 -83.4360 53° Northeast 417 480 37,000  Level FlightAware ADS-B
Thu 05:54:42 PM 40.6920 -83.3540 53° Northeast 423 487 37,000  Level FlightAware ADS-B
Thu 05:55:22 PM 40.7390 -83.2710 53° Northeast 425 489 37,000  Level FlightAware ADS-B
Thu 05:55:59 PM 40.7820 -83.1950 53° Northeast 428 493 37,000  Level FlightAware ADS-B
Thu 05:56:41 PM 40.8320 -83.1060 53° Northeast 431 496 37,000  Level FlightAware ADS-B
Thu 05:57:20 PM 40.8780 -83.0240 53° Northeast 433 498 37,000  Level FlightAware ADS-B
Thu 05:57:59 PM 40.9240 -82.9420 53° Northeast 435 501 37,000  Level FlightAware ADS-B
Thu 05:58:43 PM 40.9780 -82.8450 54° Northeast 436 502 37,000  Level FlightAware ADS-B
Thu 05:59:22 PM 41.0220 -82.7610 55° Northeast 442 509 37,000  Level FlightAware ADS-B
Thu 06:00:04 PM 41.0610 -82.6560 64° Northeast 449 517 37,000  Level FlightAware ADS-B
Thu 06:00:44 PM 41.0960 -82.5530 66° East 450 518 37,000  Level FlightAware ADS-B
Thu 06:01:25 PM 41.1310 -82.4490 66° East 450 518 37,000  Level FlightAware ADS-B
Thu 06:02:10 PM 41.1690 -82.3390 65° Northeast 450 518 37,000  Level FlightAware ADS-B
Thu 06:02:45 PM 41.1950 -82.2600 66° East 449 517 37,000  Level FlightAware ADS-B
Thu 06:03:27 PM 41.2350 -82.1420 66° East 449 517 37,000  Level FlightAware ADS-B
Thu 06:04:11 PM 41.2710 -82.0320 66° East 449 517 37,000  Level FlightAware ADS-B
Thu 06:04:43 PM 41.2990 -81.9480 66° East 448 516 37,000  Level FlightAware ADS-B
Thu 06:05:27 PM 41.3370 -81.8360 66° East 448 516 37,000  Level FlightAware ADS-B
Thu 06:06:10 PM 41.3730 -81.7260 66° East 446 513 37,000  Level FlightAware ADS-B
Thu 06:06:49 PM 41.4050 -81.6290 66° East 445 512 37,000  Level FlightAware ADS-B
Thu 06:07:31 PM 41.4400 -81.5240 66° East 443 510 37,000  Level FlightAware ADS-B
Thu 06:08:13 PM 41.4740 -81.4180 67° East 441 507 37,000  Level FlightAware ADS-B
Thu 06:08:57 PM 41.5090 -81.3090 67° East 439 505 37,000  Level FlightAware ADS-B
Thu 06:09:29 PM 41.5360 -81.2270 66° East 437 503 37,000  Level FlightAware ADS-B
Thu 06:10:13 PM 41.5710 -81.1180 67° East 436 502 37,000  Level FlightAware ADS-B
Thu 06:10:57 PM 41.6070 -81.0080 66° East 434 499 37,000  Level FlightAware ADS-B
Thu 06:11:29 PM 41.6320 -80.9290 67° East 433 498 37,000  Level FlightAware ADS-B
Thu 06:12:15 PM 41.6690 -80.8140 67° East 434 499 37,000  Level FlightAware ADS-B
Thu 06:12:55 PM 41.6990 -80.7170 67° East 434 499 37,000  Level FlightAware ADS-B
Thu 06:13:36 PM 41.7320 -80.6120 67° East 433 498 37,000  Level FlightAware ADS-B
Thu 06:14:16 PM 41.7640 -80.5110 67° East 435 501 37,000  Level FlightAware ADS-B
Thu 06:15:00 PM 41.7980 -80.4010 67° East 436 502 37,000  Level FlightAware ADS-B
Thu 06:15:39 PM 41.8270 -80.3090 67° East 437 503 37,000  Level FlightAware ADS-B
Thu 06:16:21 PM 41.8600 -80.2020 67° East 437 503 37,000  Level FlightAware ADS-B
Thu 06:16:59 PM 41.8900 -80.1050 67° East 436 502 37,000 -623 Level FlightAware ADS-B
Thu 06:17:38 PM 41.9200 -80.0080 67° East 438 504 36,200 -1,275 Descending FlightAware ADS-B
Thu 06:18:19 PM 41.9510 -79.9050 68° East 439 505 35,300 -1,185 Descending FlightAware ADS-B
Thu 06:18:59 PM 41.9840 -79.7980 67° East 439 505 34,600 -923 Descending FlightAware ADS-B
Thu 06:19:37 PM 42.0130 -79.7020 68° East 440 506 34,100 -769 Descending FlightAware ADS-B
Thu 06:20:17 PM 42.0440 -79.6020 67° East 458 527 33,600 -786 Descending FlightAware ADS-B
Thu 06:21:01 PM 42.0790 -79.4850 68° East 459 528 33,000 -404 Descending FlightAware ADS-B
Thu 06:21:46 PM 42.1160 -79.3640 68° East 461 531 33,000  Level FlightAware ADS-B
Thu 06:22:31 PM 42.1530 -79.2400 68° East 461 531 33,000  Level FlightAware ADS-B
Thu 06:23:12 PM 42.1860 -79.1330 67° East 461 531 33,000  Level FlightAware ADS-B
Thu 06:23:46 PM 42.2160 -79.0420 66° East 462 532 33,000  Level FlightAware ADS-B
Thu 06:24:27 PM 42.2530 -78.9340 65° Northeast 462 532 33,000  Level FlightAware ADS-B
Thu 06:25:11 PM 42.2940 -78.8170 65° Northeast 462 532 33,000  Level FlightAware ADS-B
Thu 06:25:44 PM 42.3230 -78.7330 65° Northeast 463 533 33,000  Level FlightAware ADS-B
Thu 06:26:28 PM 42.3630 -78.6160 65° Northeast 464 534 33,000  Level FlightAware ADS-B
Thu 06:27:10 PM 42.4010 -78.5050 65° Northeast 466 536 33,000  Level FlightAware ADS-B
Thu 06:27:48 PM 42.4360 -78.4020 65° Northeast 468 539 33,000 -1,084 Level FlightAware ADS-B
Thu 06:28:33 PM 42.4780 -78.2820 65° Northeast 461 531 31,500 -1,326 Descending FlightAware ADS-B
Thu 06:29:14 PM 42.5130 -78.1760 66° East 463 533 31,100 -706 Descending FlightAware ADS-B
Thu 06:29:58 PM 42.5530 -78.0600 65° Northeast 459 528 30,500 -714 Descending FlightAware ADS-B
Thu 06:30:38 PM 42.5870 -77.9580 66° East 451 519 30,100 -750 Descending FlightAware ADS-B
Thu 06:31:18 PM 42.6230 -77.8510 65° Northeast 449 517 29,500 -1,814 Descending FlightAware ADS-B
Thu 06:32:04 PM 42.6630 -77.7320 65° Northeast 453 521 27,500 -2,442 Descending FlightAware ADS-B
Thu 06:32:44 PM 42.6980 -77.6270 66° East 441 507 26,000 -2,341 Descending FlightAware ADS-B
Thu 06:33:26 PM 42.7330 -77.5210 66° East 434 499 24,300 -2,372 Descending FlightAware ADS-B
Thu 06:34:10 PM 42.7690 -77.4130 66° East 423 487 22,600 -2,286 Descending FlightAware ADS-B
Thu 06:34:50 PM 42.8010 -77.3170 66° East 414 476 21,100 -2,214 Descending FlightAware ADS-B
Thu 06:35:34 PM 42.8350 -77.2120 66° East 402 463 19,500 -2,143 Descending FlightAware ADS-B
Thu 06:36:14 PM 42.8660 -77.1200 65° Northeast 393 452 18,100 -2,148 Descending FlightAware ADS-B
Thu 06:36:55 PM 42.8930 -77.0300 68° East 385 443 16,600 -2,154 Descending FlightAware ADS-B
Thu 06:37:32 PM 42.9210 -76.9480 65° Northeast 380 437 15,300 -2,222 Descending FlightAware ADS-B
Thu 06:38:16 PM 42.9530 -76.8500 66° East 375 432 13,600 -2,195 Descending FlightAware ADS-B
Thu 06:38:54 PM 42.9800 -76.7670 66° East 367 422 12,300 -2,108 Descending FlightAware ADS-B
Thu 06:39:30 PM 43.0010 -76.6910 69° East 346 398 11,000 -1,350 Descending FlightAware ADS-B
Thu 06:40:14 PM 43.0030 -76.6060 88° East 290 334 10,500 -1,333 Descending FlightAware ADS-B
Thu 06:40:42 PM 43.0040 -76.5540 88° East 284 327 9,400 -2,040 Descending FlightAware ADS-B
Thu 06:41:04 PM 43.0040 -76.5130 90° East 280 322 8,800 -1,765 Descending FlightAware ADS-B
Thu 06:41:50 PM 43.0040 -76.4320 90° East 273 314 7,400 -1,737 Descending FlightAware ADS-B
Thu 06:42:20 PM 43.0050 -76.3810 88° East 269 310 6,600 -1,607 Descending FlightAware ADS-B
Thu 06:42:46 PM 43.0050 -76.3360 90° East 267 307 5,900 -750 Descending FlightAware ADS-B
Thu 06:43:16 PM 43.0070 -76.2870 87° East 243 280 5,900  Level FlightAware ADS-B
Thu 06:43:42 PM 43.0070 -76.2490 90° East 231 266 5,900  Level FlightAware ADS-B
Thu 06:44:10 PM 43.0080 -76.2090 88° East 232 267 5,900 -367 Level FlightAware ADS-B
Thu 06:44:31 PM 43.0090 -76.1780 87° East 227 261 5,600 -1,440 Descending FlightAware ADS-B
Thu 06:45:00 PM 43.0100 -76.1360 88° East 229 264 4,700 -1,756 Descending FlightAware ADS-B
Thu 06:45:12 PM 43.0110 -76.1190 85° East 228 262 4,400 -1,350 Descending FlightAware ADS-B
Thu 06:45:40 PM 43.0170 -76.0800 78° East 215 247 3,800 -1,333 Descending FlightAware ADS-B
Thu 06:45:57 PM 43.0240 -76.0620 62° Northeast 204 235 3,400 -1,350 Descending FlightAware ADS-B
Thu 06:46:20 PM 43.0410 -76.0420 41° Northeast 195 224 2,900 -1,021 Descending FlightAware ADS-B
Thu 06:46:44 PM 43.0590 -76.0280 30° Northeast 195 224 2,600 -577 Descending FlightAware ADS-B
Thu 06:47:12 PM 43.0820 -76.0140 24° Northeast 180 207 2,400 -450 Descending FlightAware ADS-B
Thu 06:47:24 PM 43.0920 -76.0100 16° North 172 198 2,300 -1,143 Descending FlightAware ADS-B
Thu 06:47:54 PM 43.1120 -76.0210 338° Northwest 163 188 1,600 -1,421 Descending FlightAware ADS-B
Thu 06:48:02 PM 43.1130 -76.0280 281° West 163 188 1,400 -1,091 Descending FlightAware ADS-B
Thu 06:48:38 PM 43.1100 -76.0630 263° West 133 153 800 -938 Descending FlightAware ADS-B
Thu 06:49:06 PM 43.1090 -76.0860 267° West 128 147 400 -453 Descending FlightAware ADS-B
Thu 06:49:31 PM 43.1090 -76.1040 270° West 128 147 400  Level FlightAware ADS-B

Login

Don't have an account? Register now (free) for customized features, flight alerts, and more!